sensor_id;sensor_type;location;lat;lon;timestamp;P1;durP1;ratioP1;P2;durP2;ratioP2
55720;SDS011;41626;53.098;6.168;2022-11-11T00:01:07;15.63;;;8.63;;
55720;SDS011;41626;53.098;6.168;2022-11-11T00:03:36;15.45;;;6.88;;
55720;SDS011;41626;53.098;6.168;2022-11-11T00:06:02;16.90;;;8.32;;
55720;SDS011;41626;53.098;6.168;2022-11-11T00:08:29;13.85;;;7.20;;
55720;SDS011;41626;53.098;6.168;2022-11-11T00:11:13;27.55;;;8.73;;
55720;SDS011;41626;53.098;6.168;2022-11-11T00:13:41;18.73;;;7.72;;
55720;SDS011;41626;53.098;6.168;2022-11-11T00:16:14;11.10;;;6.53;;
55720;SDS011;41626;53.098;6.168;2022-11-11T00:18:41;16.08;;;7.55;;
55720;SDS011;41626;53.098;6.168;2022-11-11T00:21:26;17.33;;;8.30;;
55720;SDS011;41626;53.098;6.168;2022-11-11T00:24:24;15.52;;;9.25;;
55720;SDS011;41626;53.098;6.168;2022-11-11T00:27:12;18.45;;;8.13;;
55720;SDS011;41626;53.098;6.168;2022-11-11T00:29:38;16.20;;;7.45;;
55720;SDS011;41626;53.098;6.168;2022-11-11T00:32:05;13.15;;;7.38;;
55720;SDS011;41626;53.098;6.168;2022-11-11T00:34:47;13.02;;;7.47;;
55720;SDS011;41626;53.098;6.168;2022-11-11T00:37:32;18.58;;;9.65;;
55720;SDS011;41626;53.098;6.168;2022-11-11T00:39:58;19.40;;;7.82;;
55720;SDS011;41626;53.098;6.168;2022-11-11T00:42:24;14.27;;;7.78;;
55720;SDS011;41626;53.098;6.168;2022-11-11T00:44:49;20.13;;;8.13;;
55720;SDS011;41626;53.098;6.168;2022-11-11T00:47:15;20.27;;;7.57;;
55720;SDS011;41626;53.098;6.168;2022-11-11T00:49:59;24.20;;;8.40;;
55720;SDS011;41626;53.098;6.168;2022-11-11T00:52:44;13.02;;;7.18;;
55720;SDS011;41626;53.098;6.168;2022-11-11T00:55:10;14.13;;;8.18;;
55720;SDS011;41626;53.098;6.168;2022-11-11T00:57:36;15.07;;;8.75;;
55720;SDS011;41626;53.098;6.168;2022-11-11T01:00:02;10.45;;;7.45;;
55720;SDS011;41626;53.098;6.168;2022-11-11T01:02:29;13.98;;;9.00;;
55720;SDS011;41626;53.098;6.168;2022-11-11T01:04:54;14.60;;;7.95;;
55720;SDS011;41626;53.098;6.168;2022-11-11T01:07:20;13.32;;;7.30;;
55720;SDS011;41626;53.098;6.168;2022-11-11T01:09:47;13.20;;;6.55;;
55720;SDS011;41626;53.098;6.168;2022-11-11T01:12:12;13.18;;;7.95;;
55720;SDS011;41626;53.098;6.168;2022-11-11T01:14:38;13.27;;;7.47;;
55720;SDS011;41626;53.098;6.168;2022-11-11T01:17:04;19.55;;;8.73;;
55720;SDS011;41626;53.098;6.168;2022-11-11T01:19:30;16.73;;;8.20;;
55720;SDS011;41626;53.098;6.168;2022-11-11T01:21:56;19.95;;;9.02;;
55720;SDS011;41626;53.098;6.168;2022-11-11T01:24:22;27.17;;;9.13;;
55720;SDS011;41626;53.098;6.168;2022-11-11T01:26:48;13.00;;;7.55;;
55720;SDS011;41626;53.098;6.168;2022-11-11T01:29:14;21.80;;;8.48;;
55720;SDS011;41626;53.098;6.168;2022-11-11T01:31:40;19.63;;;8.65;;
55720;SDS011;41626;53.098;6.168;2022-11-11T01:34:05;13.55;;;8.77;;
55720;SDS011;41626;53.098;6.168;2022-11-11T01:36:31;18.67;;;8.50;;
55720;SDS011;41626;53.098;6.168;2022-11-11T01:38:57;18.77;;;8.43;;
55720;SDS011;41626;53.098;6.168;2022-11-11T01:41:26;16.92;;;7.18;;
55720;SDS011;41626;53.098;6.168;2022-11-11T01:46:39;18.10;;;8.38;;
55720;SDS011;41626;53.098;6.168;2022-11-11T01:52:09;15.80;;;8.63;;
55720;SDS011;41626;53.098;6.168;2022-11-11T01:54:49;21.85;;;8.75;;
55720;SDS011;41626;53.098;6.168;2022-11-11T01:57:39;19.17;;;9.30;;
55720;SDS011;41626;53.098;6.168;2022-11-11T02:00:12;16.95;;;9.32;;
55720;SDS011;41626;53.098;6.168;2022-11-11T02:05:28;13.52;;;8.00;;
55720;SDS011;41626;53.098;6.168;2022-11-11T02:08:25;12.02;;;7.40;;
55720;SDS011;41626;53.098;6.168;2022-11-11T02:11:08;32.45;;;9.85;;
55720;SDS011;41626;53.098;6.168;2022-11-11T02:14:04;18.98;;;11.23;;
55720;SDS011;41626;53.098;6.168;2022-11-11T02:16:49;17.92;;;9.48;;
55720;SDS011;41626;53.098;6.168;2022-11-11T02:19:17;15.45;;;9.10;;
55720;SDS011;41626;53.098;6.168;2022-11-11T02:21:50;45.45;;;10.70;;
55720;SDS011;41626;53.098;6.168;2022-11-11T02:24:19;19.15;;;8.85;;
55720;SDS011;41626;53.098;6.168;2022-11-11T02:26:47;15.32;;;9.63;;
55720;SDS011;41626;53.098;6.168;2022-11-11T02:29:13;15.63;;;8.50;;
55720;SDS011;41626;53.098;6.168;2022-11-11T02:31:43;17.85;;;11.20;;
55720;SDS011;41626;53.098;6.168;2022-11-11T02:34:08;25.38;;;11.15;;
55720;SDS011;41626;53.098;6.168;2022-11-11T02:36:34;19.83;;;11.52;;
55720;SDS011;41626;53.098;6.168;2022-11-11T02:39:01;19.98;;;12.88;;
55720;SDS011;41626;53.098;6.168;2022-11-11T02:41:27;19.13;;;11.98;;
55720;SDS011;41626;53.098;6.168;2022-11-11T02:44:11;14.20;;;9.48;;
55720;SDS011;41626;53.098;6.168;2022-11-11T02:46:37;23.77;;;13.10;;
55720;SDS011;41626;53.098;6.168;2022-11-11T02:49:02;28.38;;;12.40;;
55720;SDS011;41626;53.098;6.168;2022-11-11T02:51:28;16.15;;;10.80;;
55720;SDS011;41626;53.098;6.168;2022-11-11T02:53:53;23.63;;;13.95;;
55720;SDS011;41626;53.098;6.168;2022-11-11T02:56:25;22.48;;;13.80;;
55720;SDS011;41626;53.098;6.168;2022-11-11T02:59:10;17.60;;;12.35;;
55720;SDS011;41626;53.098;6.168;2022-11-11T03:01:36;21.00;;;12.80;;
55720;SDS011;41626;53.098;6.168;2022-11-11T03:04:02;18.58;;;14.15;;
55720;SDS011;41626;53.098;6.168;2022-11-11T03:06:28;23.67;;;16.10;;
55720;SDS011;41626;53.098;6.168;2022-11-11T03:08:53;21.48;;;14.85;;
55720;SDS011;41626;53.098;6.168;2022-11-11T03:11:19;21.42;;;14.02;;
55720;SDS011;41626;53.098;6.168;2022-11-11T03:13:52;23.42;;;15.02;;
55720;SDS011;41626;53.098;6.168;2022-11-11T03:16:18;25.17;;;13.38;;
55720;SDS011;41626;53.098;6.168;2022-11-11T03:19:13;22.52;;;15.38;;
55720;SDS011;41626;53.098;6.168;2022-11-11T03:21:39;27.98;;;16.08;;
55720;SDS011;41626;53.098;6.168;2022-11-11T03:24:04;28.08;;;15.25;;
55720;SDS011;41626;53.098;6.168;2022-11-11T03:26:30;22.05;;;15.75;;
55720;SDS011;41626;53.098;6.168;2022-11-11T03:28:56;25.00;;;15.98;;
55720;SDS011;41626;53.098;6.168;2022-11-11T03:31:22;26.75;;;17.40;;
55720;SDS011;41626;53.098;6.168;2022-11-11T03:33:48;23.45;;;15.23;;
55720;SDS011;41626;53.098;6.168;2022-11-11T03:36:14;26.92;;;15.98;;
55720;SDS011;41626;53.098;6.168;2022-11-11T03:38:39;23.98;;;15.02;;
55720;SDS011;41626;53.098;6.168;2022-11-11T03:41:05;22.17;;;14.85;;
55720;SDS011;41626;53.098;6.168;2022-11-11T03:43:31;19.42;;;14.60;;
55720;SDS011;41626;53.098;6.168;2022-11-11T03:46:00;26.17;;;14.85;;
55720;SDS011;41626;53.098;6.168;2022-11-11T03:48:28;27.10;;;16.90;;
55720;SDS011;41626;53.098;6.168;2022-11-11T03:50:55;25.52;;;17.65;;
55720;SDS011;41626;53.098;6.168;2022-11-11T03:53:21;23.30;;;15.48;;
55720;SDS011;41626;53.098;6.168;2022-11-11T03:55:47;29.58;;;18.20;;
55720;SDS011;41626;53.098;6.168;2022-11-11T03:58:14;27.08;;;17.55;;
55720;SDS011;41626;53.098;6.168;2022-11-11T04:00:40;22.52;;;15.68;;
55720;SDS011;41626;53.098;6.168;2022-11-11T04:03:13;30.45;;;19.98;;
55720;SDS011;41626;53.098;6.168;2022-11-11T04:05:58;32.53;;;16.83;;
55720;SDS011;41626;53.098;6.168;2022-11-11T04:08:27;30.05;;;17.08;;
55720;SDS011;41626;53.098;6.168;2022-11-11T04:11:12;34.10;;;18.23;;
55720;SDS011;41626;53.098;6.168;2022-11-11T04:13:48;29.40;;;18.65;;
55720;SDS011;41626;53.098;6.168;2022-11-11T04:16:34;24.38;;;18.80;;
55720;SDS011;41626;53.098;6.168;2022-11-11T04:18:59;25.45;;;17.08;;
55720;SDS011;41626;53.098;6.168;2022-11-11T04:21:44;21.80;;;16.55;;
55720;SDS011;41626;53.098;6.168;2022-11-11T04:24:13;21.02;;;17.20;;
55720;SDS011;41626;53.098;6.168;2022-11-11T04:27:00;27.20;;;19.38;;
55720;SDS011;41626;53.098;6.168;2022-11-11T04:29:27;25.58;;;16.23;;
55720;SDS011;41626;53.098;6.168;2022-11-11T04:34:39;25.13;;;16.25;;
55720;SDS011;41626;53.098;6.168;2022-11-11T04:37:05;28.60;;;20.42;;
55720;SDS011;41626;53.098;6.168;2022-11-11T04:39:31;27.90;;;18.20;;
55720;SDS011;41626;53.098;6.168;2022-11-11T04:42:16;34.95;;;19.25;;
55720;SDS011;41626;53.098;6.168;2022-11-11T04:44:41;28.35;;;18.33;;
55720;SDS011;41626;53.098;6.168;2022-11-11T04:47:30;29.85;;;20.75;;
55720;SDS011;41626;53.098;6.168;2022-11-11T04:49:56;29.83;;;20.27;;
55720;SDS011;41626;53.098;6.168;2022-11-11T04:52:22;30.92;;;19.92;;
55720;SDS011;41626;53.098;6.168;2022-11-11T04:54:50;22.42;;;16.95;;
55720;SDS011;41626;53.098;6.168;2022-11-11T04:57:38;28.05;;;22.08;;
55720;SDS011;41626;53.098;6.168;2022-11-11T05:00:12;25.15;;;18.83;;
55720;SDS011;41626;53.098;6.168;2022-11-11T05:02:40;28.42;;;20.23;;
55720;SDS011;41626;53.098;6.168;2022-11-11T05:05:25;26.35;;;18.85;;
55720;SDS011;41626;53.098;6.168;2022-11-11T05:07:51;32.38;;;19.92;;
55720;SDS011;41626;53.098;6.168;2022-11-11T05:10:35;24.67;;;18.65;;
55720;SDS011;41626;53.098;6.168;2022-11-11T05:13:02;31.35;;;22.05;;
55720;SDS011;41626;53.098;6.168;2022-11-11T05:15:51;33.97;;;20.67;;
55720;SDS011;41626;53.098;6.168;2022-11-11T05:18:35;35.15;;;21.45;;
55720;SDS011;41626;53.098;6.168;2022-11-11T05:21:23;28.38;;;20.38;;
55720;SDS011;41626;53.098;6.168;2022-11-11T05:23:52;26.50;;;19.73;;
55720;SDS011;41626;53.098;6.168;2022-11-11T05:26:36;31.08;;;19.30;;
55720;SDS011;41626;53.098;6.168;2022-11-11T05:29:02;33.35;;;21.08;;
55720;SDS011;41626;53.098;6.168;2022-11-11T05:31:28;29.73;;;20.05;;
55720;SDS011;41626;53.098;6.168;2022-11-11T05:33:54;27.65;;;21.83;;
55720;SDS011;41626;53.098;6.168;2022-11-11T05:36:20;32.65;;;21.65;;
55720;SDS011;41626;53.098;6.168;2022-11-11T05:38:45;37.95;;;23.90;;
55720;SDS011;41626;53.098;6.168;2022-11-11T05:41:11;30.98;;;22.33;;
55720;SDS011;41626;53.098;6.168;2022-11-11T05:43:37;36.25;;;24.70;;
55720;SDS011;41626;53.098;6.168;2022-11-11T05:46:02;33.13;;;23.02;;
55720;SDS011;41626;53.098;6.168;2022-11-11T05:48:29;31.20;;;20.80;;
55720;SDS011;41626;53.098;6.168;2022-11-11T05:50:58;35.83;;;23.73;;
55720;SDS011;41626;53.098;6.168;2022-11-11T05:53:24;36.05;;;23.75;;
55720;SDS011;41626;53.098;6.168;2022-11-11T05:55:50;36.40;;;21.67;;
55720;SDS011;41626;53.098;6.168;2022-11-11T05:58:16;31.95;;;21.35;;
55720;SDS011;41626;53.098;6.168;2022-11-11T06:00:42;34.60;;;24.90;;
55720;SDS011;41626;53.098;6.168;2022-11-11T06:03:08;33.88;;;21.20;;
55720;SDS011;41626;53.098;6.168;2022-11-11T06:05:37;26.88;;;21.63;;
55720;SDS011;41626;53.098;6.168;2022-11-11T06:08:03;34.00;;;21.20;;
55720;SDS011;41626;53.098;6.168;2022-11-11T06:10:29;29.85;;;19.80;;
55720;SDS011;41626;53.098;6.168;2022-11-11T06:12:55;36.63;;;24.08;;
55720;SDS011;41626;53.098;6.168;2022-11-11T06:15:29;30.65;;;20.75;;
55720;SDS011;41626;53.098;6.168;2022-11-11T06:18:05;31.83;;;22.67;;
55720;SDS011;41626;53.098;6.168;2022-11-11T06:20:31;24.15;;;19.20;;
55720;SDS011;41626;53.098;6.168;2022-11-11T06:22:59;30.55;;;21.30;;
55720;SDS011;41626;53.098;6.168;2022-11-11T06:25:27;33.25;;;22.13;;
55720;SDS011;41626;53.098;6.168;2022-11-11T06:28:12;33.90;;;20.55;;
55720;SDS011;41626;53.098;6.168;2022-11-11T06:30:40;27.77;;;20.40;;
55720;SDS011;41626;53.098;6.168;2022-11-11T06:33:06;31.23;;;23.23;;
55720;SDS011;41626;53.098;6.168;2022-11-11T06:35:33;35.90;;;22.33;;
55720;SDS011;41626;53.098;6.168;2022-11-11T06:38:04;36.42;;;24.63;;
55720;SDS011;41626;53.098;6.168;2022-11-11T06:40:30;30.35;;;23.17;;
55720;SDS011;41626;53.098;6.168;2022-11-11T06:42:57;33.25;;;23.88;;
55720;SDS011;41626;53.098;6.168;2022-11-11T06:45:23;30.67;;;21.30;;
55720;SDS011;41626;53.098;6.168;2022-11-11T06:47:50;36.03;;;22.00;;
55720;SDS011;41626;53.098;6.168;2022-11-11T06:50:16;34.75;;;22.88;;
55720;SDS011;41626;53.098;6.168;2022-11-11T06:52:42;31.83;;;23.27;;
55720;SDS011;41626;53.098;6.168;2022-11-11T06:55:07;40.65;;;23.88;;
55720;SDS011;41626;53.098;6.168;2022-11-11T06:57:33;33.67;;;25.08;;
55720;SDS011;41626;53.098;6.168;2022-11-11T06:59:59;35.50;;;22.55;;
55720;SDS011;41626;53.098;6.168;2022-11-11T07:02:25;34.22;;;24.27;;
55720;SDS011;41626;53.098;6.168;2022-11-11T07:04:50;33.55;;;24.40;;
55720;SDS011;41626;53.098;6.168;2022-11-11T07:07:16;40.35;;;26.25;;
55720;SDS011;41626;53.098;6.168;2022-11-11T07:09:42;32.10;;;24.60;;
55720;SDS011;41626;53.098;6.168;2022-11-11T07:12:07;36.20;;;26.25;;
55720;SDS011;41626;53.098;6.168;2022-11-11T07:14:33;30.45;;;23.60;;
55720;SDS011;41626;53.098;6.168;2022-11-11T07:16:59;34.53;;;24.55;;
55720;SDS011;41626;53.098;6.168;2022-11-11T07:19:25;32.85;;;25.45;;
55720;SDS011;41626;53.098;6.168;2022-11-11T07:21:50;34.60;;;25.60;;
55720;SDS011;41626;53.098;6.168;2022-11-11T07:24:16;37.28;;;23.35;;
55720;SDS011;41626;53.098;6.168;2022-11-11T07:26:41;35.45;;;24.58;;
55720;SDS011;41626;53.098;6.168;2022-11-11T07:29:07;44.28;;;27.02;;
55720;SDS011;41626;53.098;6.168;2022-11-11T07:31:33;39.08;;;25.58;;
55720;SDS011;41626;53.098;6.168;2022-11-11T07:33:59;37.60;;;25.92;;
55720;SDS011;41626;53.098;6.168;2022-11-11T07:36:25;32.22;;;24.48;;
55720;SDS011;41626;53.098;6.168;2022-11-11T07:38:50;30.67;;;22.88;;
55720;SDS011;41626;53.098;6.168;2022-11-11T07:41:16;40.38;;;25.63;;
55720;SDS011;41626;53.098;6.168;2022-11-11T07:43:42;31.65;;;23.63;;
55720;SDS011;41626;53.098;6.168;2022-11-11T07:46:07;31.50;;;25.90;;
55720;SDS011;41626;53.098;6.168;2022-11-11T07:48:33;35.30;;;25.80;;
55720;SDS011;41626;53.098;6.168;2022-11-11T07:50:58;32.90;;;23.58;;
55720;SDS011;41626;53.098;6.168;2022-11-11T07:53:24;30.98;;;24.17;;
55720;SDS011;41626;53.098;6.168;2022-11-11T07:55:52;29.77;;;21.67;;
55720;SDS011;41626;53.098;6.168;2022-11-11T07:58:18;36.83;;;25.48;;
55720;SDS011;41626;53.098;6.168;2022-11-11T08:00:44;33.15;;;22.90;;
55720;SDS011;41626;53.098;6.168;2022-11-11T08:03:10;30.02;;;24.38;;
55720;SDS011;41626;53.098;6.168;2022-11-11T08:05:36;34.08;;;25.10;;
55720;SDS011;41626;53.098;6.168;2022-11-11T08:08:02;34.45;;;25.73;;
55720;SDS011;41626;53.098;6.168;2022-11-11T08:10:32;37.78;;;24.00;;
55720;SDS011;41626;53.098;6.168;2022-11-11T08:12:58;34.40;;;25.08;;
55720;SDS011;41626;53.098;6.168;2022-11-11T08:15:43;39.80;;;26.73;;
55720;SDS011;41626;53.098;6.168;2022-11-11T08:18:08;32.08;;;23.90;;
55720;SDS011;41626;53.098;6.168;2022-11-11T08:20:34;32.47;;;24.00;;
55720;SDS011;41626;53.098;6.168;2022-11-11T08:23:00;32.20;;;25.60;;
55720;SDS011;41626;53.098;6.168;2022-11-11T08:25:28;37.28;;;25.23;;
55720;SDS011;41626;53.098;6.168;2022-11-11T08:27:55;35.92;;;26.50;;
55720;SDS011;41626;53.098;6.168;2022-11-11T08:30:26;31.90;;;23.55;;
55720;SDS011;41626;53.098;6.168;2022-11-11T08:32:55;35.58;;;26.15;;
55720;SDS011;41626;53.098;6.168;2022-11-11T08:35:25;29.40;;;23.65;;
55720;SDS011;41626;53.098;6.168;2022-11-11T08:37:52;38.22;;;26.70;;
55720;SDS011;41626;53.098;6.168;2022-11-11T08:40:18;31.27;;;24.60;;
55720;SDS011;41626;53.098;6.168;2022-11-11T08:42:44;30.02;;;24.20;;
55720;SDS011;41626;53.098;6.168;2022-11-11T08:45:10;36.65;;;24.63;;
55720;SDS011;41626;53.098;6.168;2022-11-11T08:47:36;29.52;;;22.13;;
55720;SDS011;41626;53.098;6.168;2022-11-11T08:50:03;35.92;;;27.55;;
55720;SDS011;41626;53.098;6.168;2022-11-11T08:52:29;33.95;;;23.38;;
55720;SDS011;41626;53.098;6.168;2022-11-11T08:54:55;37.22;;;25.10;;
55720;SDS011;41626;53.098;6.168;2022-11-11T08:57:21;34.03;;;24.33;;
55720;SDS011;41626;53.098;6.168;2022-11-11T08:59:46;34.45;;;22.17;;
55720;SDS011;41626;53.098;6.168;2022-11-11T09:02:12;34.47;;;22.58;;
55720;SDS011;41626;53.098;6.168;2022-11-11T09:04:38;34.15;;;23.45;;
55720;SDS011;41626;53.098;6.168;2022-11-11T09:07:05;33.38;;;24.65;;
55720;SDS011;41626;53.098;6.168;2022-11-11T09:09:32;25.17;;;22.20;;
55720;SDS011;41626;53.098;6.168;2022-11-11T09:11:58;29.80;;;23.00;;
55720;SDS011;41626;53.098;6.168;2022-11-11T09:14:25;31.55;;;20.58;;
55720;SDS011;41626;53.098;6.168;2022-11-11T09:16:51;30.05;;;22.92;;
55720;SDS011;41626;53.098;6.168;2022-11-11T09:19:16;32.33;;;23.77;;
55720;SDS011;41626;53.098;6.168;2022-11-11T09:21:42;30.40;;;22.98;;
55720;SDS011;41626;53.098;6.168;2022-11-11T09:24:07;28.65;;;22.33;;
55720;SDS011;41626;53.098;6.168;2022-11-11T09:26:33;36.90;;;24.88;;
55720;SDS011;41626;53.098;6.168;2022-11-11T09:28:59;38.78;;;26.15;;
55720;SDS011;41626;53.098;6.168;2022-11-11T09:31:25;29.75;;;24.92;;
55720;SDS011;41626;53.098;6.168;2022-11-11T09:33:51;32.78;;;21.88;;
55720;SDS011;41626;53.098;6.168;2022-11-11T09:36:16;32.38;;;22.75;;
55720;SDS011;41626;53.098;6.168;2022-11-11T09:38:42;32.30;;;23.83;;
55720;SDS011;41626;53.098;6.168;2022-11-11T09:41:17;32.78;;;23.42;;
55720;SDS011;41626;53.098;6.168;2022-11-11T09:44:02;34.33;;;22.80;;
55720;SDS011;41626;53.098;6.168;2022-11-11T09:54:25;30.63;;;23.38;;
55720;SDS011;41626;53.098;6.168;2022-11-11T09:57:07;26.52;;;20.98;;
55720;SDS011;41626;53.098;6.168;2022-11-11T09:59:42;29.08;;;19.65;;
55720;SDS011;41626;53.098;6.168;2022-11-11T10:02:31;33.17;;;23.67;;
55720;SDS011;41626;53.098;6.168;2022-11-11T10:05:18;31.42;;;19.88;;
55720;SDS011;41626;53.098;6.168;2022-11-11T10:07:56;27.58;;;21.70;;
55720;SDS011;41626;53.098;6.168;2022-11-11T10:10:28;27.90;;;21.50;;
55720;SDS011;41626;53.098;6.168;2022-11-11T10:13:01;35.00;;;22.55;;
55720;SDS011;41626;53.098;6.168;2022-11-11T10:15:33;29.98;;;21.80;;
55720;SDS011;41626;53.098;6.168;2022-11-11T10:18:17;30.65;;;20.70;;
55720;SDS011;41626;53.098;6.168;2022-11-11T10:20:47;28.52;;;20.80;;
55720;SDS011;41626;53.098;6.168;2022-11-11T10:23:19;26.75;;;21.98;;
55720;SDS011;41626;53.098;6.168;2022-11-11T10:25:54;28.20;;;21.27;;
55720;SDS011;41626;53.098;6.168;2022-11-11T10:28:25;25.50;;;19.38;;
55720;SDS011;41626;53.098;6.168;2022-11-11T10:30:55;31.77;;;20.35;;
55720;SDS011;41626;53.098;6.168;2022-11-11T10:33:23;28.05;;;19.15;;
55720;SDS011;41626;53.098;6.168;2022-11-11T10:35:56;24.23;;;20.33;;
55720;SDS011;41626;53.098;6.168;2022-11-11T10:43:47;27.80;;;19.60;;
55720;SDS011;41626;53.098;6.168;2022-11-11T10:49:18;47.53;;;20.38;;
55720;SDS011;41626;53.098;6.168;2022-11-11T10:54:46;29.60;;;18.88;;
55720;SDS011;41626;53.098;6.168;2022-11-11T11:00:07;23.73;;;18.13;;
55720;SDS011;41626;53.098;6.168;2022-11-11T11:02:40;21.92;;;17.80;;
55720;SDS011;41626;53.098;6.168;2022-11-11T11:08:33;29.63;;;20.92;;
55720;SDS011;41626;53.098;6.168;2022-11-11T11:14:02;22.23;;;18.90;;
55720;SDS011;41626;53.098;6.168;2022-11-11T11:16:38;27.45;;;19.67;;
55720;SDS011;41626;53.098;6.168;2022-11-11T11:19:19;24.88;;;18.77;;
55720;SDS011;41626;53.098;6.168;2022-11-11T11:21:59;21.92;;;17.40;;
55720;SDS011;41626;53.098;6.168;2022-11-11T11:24:27;25.15;;;17.25;;
55720;SDS011;41626;53.098;6.168;2022-11-11T11:26:57;20.05;;;17.70;;
55720;SDS011;41626;53.098;6.168;2022-11-11T11:29:26;31.08;;;19.48;;
55720;SDS011;41626;53.098;6.168;2022-11-11T11:31:54;21.92;;;18.60;;
55720;SDS011;41626;53.098;6.168;2022-11-11T11:34:20;20.70;;;17.58;;
55720;SDS011;41626;53.098;6.168;2022-11-11T11:37:01;27.13;;;18.73;;
55720;SDS011;41626;53.098;6.168;2022-11-11T11:39:36;20.65;;;15.93;;
55720;SDS011;41626;53.098;6.168;2022-11-11T11:42:03;24.58;;;17.33;;
55720;SDS011;41626;53.098;6.168;2022-11-11T11:44:30;21.50;;;17.00;;
55720;SDS011;41626;53.098;6.168;2022-11-11T11:47:01;26.80;;;18.98;;
55720;SDS011;41626;53.098;6.168;2022-11-11T11:49:38;25.85;;;17.38;;
55720;SDS011;41626;53.098;6.168;2022-11-11T11:52:14;20.30;;;15.88;;
55720;SDS011;41626;53.098;6.168;2022-11-11T11:55:06;19.58;;;15.32;;
55720;SDS011;41626;53.098;6.168;2022-11-11T12:08:57;21.50;;;16.77;;
55720;SDS011;41626;53.098;6.168;2022-11-11T12:17:27;27.40;;;19.40;;
55720;SDS011;41626;53.098;6.168;2022-11-11T12:22:57;22.77;;;17.90;;
55720;SDS011;41626;53.098;6.168;2022-11-11T12:25:47;24.02;;;17.40;;
55720;SDS011;41626;53.098;6.168;2022-11-11T12:36:25;24.15;;;17.83;;
55720;SDS011;41626;53.098;6.168;2022-11-11T12:39:37;20.90;;;16.67;;
55720;SDS011;41626;53.098;6.168;2022-11-11T12:44:42;26.85;;;20.67;;
55720;SDS011;41626;53.098;6.168;2022-11-11T12:50:13;23.17;;;18.30;;
55720;SDS011;41626;53.098;6.168;2022-11-11T12:55:14;27.73;;;20.17;;
55720;SDS011;41626;53.098;6.168;2022-11-11T12:57:54;29.35;;;20.15;;
55720;SDS011;41626;53.098;6.168;2022-11-11T13:00:52;37.17;;;22.42;;
55720;SDS011;41626;53.098;6.168;2022-11-11T13:08:58;25.98;;;20.95;;
55720;SDS011;41626;53.098;6.168;2022-11-11T13:12:11;30.00;;;22.08;;
55720;SDS011;41626;53.098;6.168;2022-11-11T13:14:36;25.67;;;19.73;;
55720;SDS011;41626;53.098;6.168;2022-11-11T13:17:17;23.30;;;16.95;;
55720;SDS011;41626;53.098;6.168;2022-11-11T13:19:50;22.88;;;19.35;;
55720;SDS011;41626;53.098;6.168;2022-11-11T13:22:30;26.25;;;20.98;;
55720;SDS011;41626;53.098;6.168;2022-11-11T13:24:56;27.08;;;21.10;;
55720;SDS011;41626;53.098;6.168;2022-11-11T13:32:49;26.35;;;19.30;;
55720;SDS011;41626;53.098;6.168;2022-11-11T13:35:51;26.58;;;21.48;;
55720;SDS011;41626;53.098;6.168;2022-11-11T13:38:26;25.38;;;18.15;;
55720;SDS011;41626;53.098;6.168;2022-11-11T13:40:56;27.48;;;20.52;;
55720;SDS011;41626;53.098;6.168;2022-11-11T13:43:35;24.63;;;19.65;;
55720;SDS011;41626;53.098;6.168;2022-11-11T13:46:04;30.33;;;20.15;;
55720;SDS011;41626;53.098;6.168;2022-11-11T13:48:35;27.70;;;20.92;;
55720;SDS011;41626;53.098;6.168;2022-11-11T13:53:59;30.50;;;21.15;;
55720;SDS011;41626;53.098;6.168;2022-11-11T13:56:27;27.30;;;19.45;;
55720;SDS011;41626;53.098;6.168;2022-11-11T13:58:58;27.92;;;20.55;;
55720;SDS011;41626;53.098;6.168;2022-11-11T14:01:30;24.45;;;18.88;;
55720;SDS011;41626;53.098;6.168;2022-11-11T14:04:02;26.75;;;19.75;;
55720;SDS011;41626;53.098;6.168;2022-11-11T14:08:58;22.83;;;16.55;;
55720;SDS011;41626;53.098;6.168;2022-11-11T14:13:50;25.58;;;19.55;;
55720;SDS011;41626;53.098;6.168;2022-11-11T14:19:12;24.67;;;19.17;;
55720;SDS011;41626;53.098;6.168;2022-11-11T14:21:54;24.90;;;19.45;;
55720;SDS011;41626;53.098;6.168;2022-11-11T14:24:22;24.15;;;17.90;;
55720;SDS011;41626;53.098;6.168;2022-11-11T14:26:58;26.73;;;19.10;;
55720;SDS011;41626;53.098;6.168;2022-11-11T14:29:30;23.95;;;19.65;;
55720;SDS011;41626;53.098;6.168;2022-11-11T14:32:11;24.63;;;20.33;;
55720;SDS011;41626;53.098;6.168;2022-11-11T14:37:50;22.20;;;19.15;;
55720;SDS011;41626;53.098;6.168;2022-11-11T14:40:37;26.90;;;20.63;;
55720;SDS011;41626;53.098;6.168;2022-11-11T14:46:00;23.80;;;18.15;;
55720;SDS011;41626;53.098;6.168;2022-11-11T14:51:36;26.73;;;18.30;;
55720;SDS011;41626;53.098;6.168;2022-11-11T14:54:16;25.30;;;18.20;;
55720;SDS011;41626;53.098;6.168;2022-11-11T14:56:54;21.60;;;16.70;;
55720;SDS011;41626;53.098;6.168;2022-11-11T14:59:25;20.90;;;17.08;;
55720;SDS011;41626;53.098;6.168;2022-11-11T15:01:53;24.27;;;18.40;;
55720;SDS011;41626;53.098;6.168;2022-11-11T15:04:19;25.77;;;18.27;;
55720;SDS011;41626;53.098;6.168;2022-11-11T15:06:51;22.35;;;18.55;;
55720;SDS011;41626;53.098;6.168;2022-11-11T15:15:11;27.85;;;20.90;;
55720;SDS011;41626;53.098;6.168;2022-11-11T15:17:50;26.42;;;20.88;;
55720;SDS011;41626;53.098;6.168;2022-11-11T15:26:35;31.35;;;19.95;;
55720;SDS011;41626;53.098;6.168;2022-11-11T15:32:21;25.70;;;20.60;;
55720;SDS011;41626;53.098;6.168;2022-11-11T15:37:55;29.67;;;20.15;;
55720;SDS011;41626;53.098;6.168;2022-11-11T15:40:26;24.25;;;19.13;;
55720;SDS011;41626;53.098;6.168;2022-11-11T15:42:56;27.25;;;20.00;;
55720;SDS011;41626;53.098;6.168;2022-11-11T15:45:25;23.23;;;17.60;;
55720;SDS011;41626;53.098;6.168;2022-11-11T15:47:57;26.85;;;20.85;;
55720;SDS011;41626;53.098;6.168;2022-11-11T15:52:53;28.38;;;20.50;;
55720;SDS011;41626;53.098;6.168;2022-11-11T15:55:24;24.80;;;20.55;;
55720;SDS011;41626;53.098;6.168;2022-11-11T15:57:51;30.90;;;21.20;;
55720;SDS011;41626;53.098;6.168;2022-11-11T16:02:48;27.67;;;22.05;;
55720;SDS011;41626;53.098;6.168;2022-11-11T16:05:21;24.25;;;20.08;;
55720;SDS011;41626;53.098;6.168;2022-11-11T16:07:49;26.92;;;19.80;;
55720;SDS011;41626;53.098;6.168;2022-11-11T16:10:19;25.10;;;20.10;;
55720;SDS011;41626;53.098;6.168;2022-11-11T16:17:51;22.02;;;18.95;;
55720;SDS011;41626;53.098;6.168;2022-11-11T16:20:24;25.55;;;19.25;;
55720;SDS011;41626;53.098;6.168;2022-11-11T16:22:55;27.83;;;20.85;;
55720;SDS011;41626;53.098;6.168;2022-11-11T16:25:24;27.80;;;21.83;;
55720;SDS011;41626;53.098;6.168;2022-11-11T16:27:51;25.92;;;19.80;;
55720;SDS011;41626;53.098;6.168;2022-11-11T16:32:58;29.95;;;21.35;;
55720;SDS011;41626;53.098;6.168;2022-11-11T16:35:35;30.83;;;21.35;;
55720;SDS011;41626;53.098;6.168;2022-11-11T16:38:02;28.85;;;22.17;;
55720;SDS011;41626;53.098;6.168;2022-11-11T16:43:13;57.83;;;22.23;;
55720;SDS011;41626;53.098;6.168;2022-11-11T16:45:57;28.63;;;23.08;;
55720;SDS011;41626;53.098;6.168;2022-11-11T16:51:11;31.98;;;21.73;;
55720;SDS011;41626;53.098;6.168;2022-11-11T16:54:11;29.05;;;22.33;;
55720;SDS011;41626;53.098;6.168;2022-11-11T16:56:47;30.50;;;22.55;;
55720;SDS011;41626;53.098;6.168;2022-11-11T16:59:32;28.42;;;21.33;;
55720;SDS011;41626;53.098;6.168;2022-11-11T17:02:13;29.15;;;22.42;;
55720;SDS011;41626;53.098;6.168;2022-11-11T17:04:50;29.77;;;22.23;;
55720;SDS011;41626;53.098;6.168;2022-11-11T17:07:28;31.20;;;21.95;;
55720;SDS011;41626;53.098;6.168;2022-11-11T17:12:34;28.85;;;21.55;;